Time;durP1;ratioP1;P1;durP2;ratioP2;P2;SDS_P1;SDS_P2;PMS_P1;PMS_P2;Temp;Humidity;BMP_temperature;BMP_pressure;BME280_temperature;BME280_humidity;BME280_pressure;Samples;Min_cycle;Max_cycle;Signal;HPM_P1;HPM_P2
2022/07/26 19:54:41;;;;;;;15.80;8.70;;;;;;;32.28;35.66;98696.44;5093877;28;20059;-80
2022/07/26 19:57:07;;;;;;;19.45;9.35;;;;;;;32.18;35.80;98699.50;5042858;28;20044;-80
2022/07/26 19:59:33;;;;;;;17.10;9.70;;;;;;;32.12;35.90;98685.09;5025818;28;20138;-78
2022/07/26 20:01:58;;;;;;;18.48;10.48;;;;;;;32.10;36.09;98692.03;5024921;28;20650;-79
2022/07/26 20:04:24;;;;;;;19.10;10.15;;;;;;;32.12;35.86;98685.09;5042256;28;20054;-78
2022/07/26 20:06:50;;;;;;;18.90;10.45;;;;;;;32.05;36.34;98690.25;5025373;28;20573;-78
2022/07/26 20:09:16;;;;;;;17.38;9.98;;;;;;;32.03;36.57;98687.03;5041504;28;20048;-78
2022/07/26 20:11:42;;;;;;;20.98;11.23;;;;;;;32.03;36.09;98687.03;5041961;28;20135;-77
2022/07/26 20:14:07;;;;;;;21.20;14.13;;;;;;;32.01;36.56;98689.28;5058061;28;20052;-77
2022/07/26 20:16:33;;;;;;;18.73;10.07;;;;;;;32.58;35.42;98679.03;5075709;28;20043;-76
2022/07/26 20:19:02;;;;;;;15.50;9.55;;;;;;;33.21;34.15;98678.28;5043496;28;20040;-75
2022/07/26 20:21:27;;;;;;;13.25;8.75;;;;;;;33.93;32.97;98693.59;5075799;28;20050;-74
2022/07/26 20:23:53;;;;;;;15.65;8.63;;;;;;;34.39;32.18;98702.84;5057503;28;20559;-74
2022/07/26 20:26:19;;;;;;;22.38;9.07;;;;;;;34.77;31.22;98692.47;5073747;28;20459;-73
2022/07/26 20:28:45;;;;;;;14.68;8.57;;;;;;;34.90;30.80;98697.75;5067416;28;20097;-74
2022/07/26 20:31:10;;;;;;;14.57;8.93;;;;;;;35.07;30.53;98705.88;5076589;28;20411;-75
2022/07/26 20:33:37;;;;;;;12.00;8.55;;;;;;;35.30;30.33;98698.78;5025399;28;20522;-71
2022/07/26 20:36:03;;;;;;;18.30;9.50;;;;;;;35.34;30.13;98696.13;5036938;28;20118;-73
2022/07/26 20:38:31;;;;;;;17.65;8.85;;;;;;;35.35;30.14;98698.56;5056865;28;20044;-72
2022/07/26 20:40:57;;;;;;;15.52;9.48;;;;;;;35.43;30.04;98696.84;5033943;28;20098;-71
2022/07/26 20:43:23;;;;;;;22.52;12.73;;;;;;;35.42;29.79;98693.31;5034793;28;20051;-74
2022/07/26 20:45:48;;;;;;;16.00;8.52;;;;;;;35.44;29.93;98696.50;5023765;28;20044;-80
2022/07/26 20:48:15;;;;;;;16.83;8.35;;;;;;;35.41;29.90;98691.69;5040877;28;20059;-70
2022/07/26 20:50:41;;;;;;;20.02;8.75;;;;;;;35.37;29.47;98687.19;5073658;28;20411;-71
2022/07/26 20:53:07;;;;;;;18.05;8.57;;;;;;;35.27;29.97;98693.94;5091275;28;20036;-70
2022/07/26 20:55:32;;;;;;;16.08;9.07;;;;;;;35.18;29.91;98692.44;5072975;28;20072;-70
2022/07/26 20:57:58;;;;;;;12.95;8.13;;;;;;;34.95;30.43;98699.50;5056621;28;20051;-71
2022/07/26 21:00:25;;;;;;;19.35;8.40;;;;;;;34.82;30.66;98695.03;5042579;28;20044;-71
2022/07/26 21:02:52;;;;;;;14.55;8.60;;;;;;;34.91;30.79;98702.13;5059837;28;20043;-73
2022/07/26 21:05:18;;;;;;;15.98;8.77;;;;;;;34.93;30.51;98693.50;5090188;28;20050;-71
2022/07/26 21:07:45;;;;;;;14.90;9.50;;;;;;;34.84;30.83;98703.78;5040021;28;20047;-71
2022/07/26 21:10:14;;;;;;;20.50;9.10;;;;;;;34.95;30.55;98697.50;5075857;28;20078;-70
2022/07/26 21:12:44;;;;;;;17.73;8.75;;;;;;;34.92;30.68;98703.72;5089592;28;20043;-70
2022/07/26 21:15:10;;;;;;;15.80;10.10;;;;;;;35.00;30.90;98707.53;5072440;28;20403;-73
2022/07/26 21:17:38;;;;;;;19.35;9.30;;;;;;;35.01;30.84;98698.13;5077508;28;20048;-72
2022/07/26 21:20:04;;;;;;;13.48;9.20;;;;;;;35.22;30.41;98699.69;5113259;28;20073;-70
2022/07/26 21:22:31;;;;;;;16.52;8.77;;;;;;;35.31;30.57;98703.16;5062808;28;20039;-72
2022/07/26 21:24:57;;;;;;;17.13;8.68;;;;;;;35.44;30.21;98712.31;5079359;28;20970;-74
2022/07/26 21:27:24;;;;;;;11.82;8.82;;;;;;;35.40;29.78;98717.69;5043578;28;20123;-73
2022/07/26 21:29:51;;;;;;;15.63;8.88;;;;;;;35.52;30.09;98716.94;5058485;28;20356;-74
2022/07/26 21:32:20;;;;;;;11.90;8.60;;;;;;;35.34;30.54;98707.16;5056291;28;20111;-72
2022/07/26 21:34:45;;;;;;;11.98;9.00;;;;;;;35.33;30.17;98706.38;5039725;28;20044;-75
2022/07/26 21:37:14;;;;;;;15.35;9.55;;;;;;;35.30;30.56;98707.06;5057334;28;20411;-72
2022/07/26 21:39:42;;;;;;;20.10;11.98;;;;;;;35.34;30.54;98710.75;5039585;28;20048;-73
2022/07/26 21:42:07;;;;;;;17.23;9.48;;;;;;;35.39;30.47;98715.28;5023241;28;20059;-73
2022/07/26 21:44:33;;;;;;;19.45;11.57;;;;;;;35.39;30.59;98720.81;5022591;28;20048;-72
2022/07/26 21:46:59;;;;;;;16.23;10.00;;;;;;;35.22;30.60;98724.53;5039335;28;20197;-74
2022/07/26 21:49:25;;;;;;;19.50;10.02;;;;;;;35.07;31.26;98724.38;5038997;28;20125;-71
2022/07/26 21:51:53;;;;;;;14.50;9.30;;;;;;;35.03;31.11;98729.75;5056885;28;20407;-70
2022/07/26 21:54:18;;;;;;;14.40;9.77;;;;;;;34.77;31.24;98725.56;5052661;28;20058;-70
2022/07/26 21:56:44;;;;;;;20.45;9.80;;;;;;;34.63;31.90;98731.38;5041261;28;20040;-70
2022/07/26 21:59:10;;;;;;;20.88;9.48;;;;;;;34.40;31.94;98701.72;5056432;28;20040;-72
2022/07/26 22:01:40;;;;;;;16.38;9.80;;;;;;;34.57;32.00;98732.72;5034958;28;20476;-71
2022/07/26 22:04:06;;;;;;;18.20;9.93;;;;;;;34.21;32.52;98729.72;5092363;28;20051;-69
2022/07/26 22:06:31;;;;;;;18.48;9.80;;;;;;;34.13;32.87;98723.13;5053635;28;20040;-70
2022/07/26 22:08:57;;;;;;;16.25;10.68;;;;;;;34.06;33.24;98719.25;5075140;28;20050;-69
2022/07/26 22:11:25;;;;;;;19.70;11.80;;;;;;;33.95;33.36;98727.09;5050163;28;20043;-70
2022/07/26 22:13:51;;;;;;;17.85;12.40;;;;;;;33.87;33.64;98710.59;5039494;28;20055;-70
2022/07/26 22:16:17;;;;;;;15.20;10.35;;;;;;;33.79;33.90;98711.44;5041718;28;20065;-71
2022/07/26 22:18:42;;;;;;;25.80;12.65;;;;;;;33.75;34.23;98716.00;5066355;28;20054;-71
2022/07/26 22:21:08;;;;;;;17.98;10.63;;;;;;;33.56;33.89;98686.13;5052637;28;20368;-71
2022/07/26 22:23:34;;;;;;;17.85;11.77;;;;;;;33.74;33.95;98706.94;5070508;28;20118;-70
2022/07/26 22:26:01;;;;;;;21.75;10.52;;;;;;;33.85;33.95;98701.84;5054207;28;20422;-70
2022/07/26 22:28:27;;;;;;;16.83;10.77;;;;;;;33.84;33.65;98706.53;5078814;28;20040;-69
2022/07/26 22:30:54;;;;;;;19.55;11.82;;;;;;;33.55;34.41;98700.22;5095989;28;20047;-69
2022/07/26 22:33:22;;;;;;;21.83;11.57;;;;;;;33.27;34.58;98707.25;5096828;28;20088;-69
2022/07/26 22:35:48;;;;;;;19.95;11.30;;;;;;;32.84;35.31;98701.00;5079296;28;20122;-70
2022/07/26 22:38:16;;;;;;;20.40;11.60;;;;;;;32.72;36.02;98699.69;5078020;28;20200;-70
2022/07/26 22:40:42;;;;;;;20.38;12.07;;;;;;;32.34;36.41;98695.97;5077422;28;20380;-70
2022/07/26 22:43:09;;;;;;;16.15;11.88;;;;;;;32.19;36.86;98696.44;5095315;28;20047;-70
2022/07/26 22:45:35;;;;;;;19.00;11.45;;;;;;;32.02;37.40;98696.41;5094904;28;20058;-70
2022/07/26 22:48:02;;;;;;;23.25;11.65;;;;;;;31.91;37.34;98689.59;5076651;28;20058;-70
2022/07/26 22:50:29;;;;;;;20.65;12.07;;;;;;;31.60;37.82;98674.28;5093576;28;20259;-70
2022/07/26 22:52:55;;;;;;;21.00;11.32;;;;;;;31.51;38.26;98687.16;5060545;28;20043;-70
2022/07/26 22:55:20;;;;;;;17.35;12.00;;;;;;;31.31;38.50;98683.03;5062535;28;20051;-70
2022/07/26 22:57:46;;;;;;;16.58;11.90;;;;;;;31.31;38.88;98704.19;5079179;28;20105;-70
2022/07/26 23:00:17;;;;;;;20.35;12.02;;;;;;;31.46;38.69;98714.75;5096349;28;20108;-70
2022/07/26 23:02:43;;;;;;;17.73;12.05;;;;;;;31.09;39.19;98691.28;5063341;28;20036;-69
2022/07/26 23:05:09;;;;;;;17.48;12.02;;;;;;;31.10;39.04;98695.66;5096437;28;20563;-70
2022/07/26 23:07:35;;;;;;;20.25;12.75;;;;;;;30.97;39.56;98685.53;5062924;28;20498;-69
2022/07/26 23:10:02;;;;;;;21.95;12.35;;;;;;;31.13;39.50;98716.97;5114281;28;20386;-70
2022/07/26 23:12:28;;;;;;;20.13;11.40;;;;;;;30.98;39.33;98706.38;5077337;28;20044;-69
2022/07/26 23:14:54;;;;;;;21.38;12.23;;;;;;;30.92;39.65;98705.69;5094030;28;20529;-69
2022/07/26 23:17:19;;;;;;;15.57;11.80;;;;;;;30.85;39.60;98702.59;5093902;28;20498;-69
2022/07/26 23:19:45;;;;;;;19.13;12.90;;;;;;;30.80;39.95;98699.97;5112043;28;20065;-69
2022/07/26 23:22:11;;;;;;;17.08;12.73;;;;;;;30.71;39.82;98698.25;5077016;28;20040;-69
2022/07/26 23:24:36;;;;;;;21.58;12.27;;;;;;;30.44;40.04;98669.03;5093692;28;20487;-69
2022/07/26 23:27:03;;;;;;;17.67;12.02;;;;;;;30.74;40.46;98719.56;5060635;28;20113;-70
2022/07/26 23:29:30;;;;;;;18.15;12.25;;;;;;;30.65;40.52;98715.94;5094801;28;20058;-70
2022/07/26 23:31:56;;;;;;;22.58;12.95;;;;;;;30.60;40.56;98721.56;5095361;28;20043;-69
2022/07/26 23:34:22;;;;;;;17.75;13.00;;;;;;;30.55;40.58;98710.72;5113336;28;20085;-69
2022/07/26 23:36:47;;;;;;;21.83;12.85;;;;;;;30.52;40.82;98714.84;5060707;28;20040;-70
2022/07/26 23:39:13;;;;;;;17.13;12.73;;;;;;;30.56;40.89;98713.13;5095450;28;20396;-69
2022/07/26 23:41:39;;;;;;;19.17;12.77;;;;;;;30.47;41.21;98708.69;5079373;28;20097;-69
2022/07/26 23:44:04;;;;;;;18.45;12.82;;;;;;;30.32;40.91;98679.72;5095430;28;20049;-69
2022/07/26 23:46:30;;;;;;;22.33;12.45;;;;;;;30.58;41.00;98712.81;5078506;28;20119;-69
2022/07/26 23:48:57;;;;;;;24.63;13.88;;;;;;;30.47;40.91;98715.00;5095162;28;20062;-69
2022/07/26 23:51:23;;;;;;;16.98;13.52;;;;;;;30.48;41.24;98708.38;5112848;28;20192;-69
2022/07/26 23:53:49;;;;;;;21.20;13.90;;;;;;;30.39;41.28;98706.69;5113038;28;20074;-69
2022/07/26 23:56:15;;;;;;;20.98;14.50;;;;;;;30.29;41.43;98704.97;5095701;28;20044;-69
2022/07/26 23:58:41;;;;;;;23.38;17.15;;;;;;;30.28;41.29;98703.38;5061659;28;20054;-69
